createdAt,value
2022-09-14T00:00:11.161Z,21.30
2022-09-14T00:02:41.940Z,21.30
2022-09-14T00:05:12.867Z,21.20
2022-09-14T00:07:43.813Z,21.20
2022-09-14T00:10:14.662Z,21.20
2022-09-14T00:12:45.182Z,21.20
2022-09-14T00:15:15.859Z,21.20
2022-09-14T00:17:46.389Z,21.20
2022-09-14T00:20:17.138Z,21.20
2022-09-14T00:22:48.608Z,21.10
2022-09-14T00:25:19.305Z,21.10
2022-09-14T00:27:49.829Z,21.10
2022-09-14T00:30:21.172Z,21.00
2022-09-14T00:32:52.368Z,21.00
2022-09-14T00:35:22.962Z,21.00
2022-09-14T00:37:53.498Z,20.90
2022-09-14T00:40:24.061Z,20.90
2022-09-14T00:42:54.657Z,20.90
2022-09-14T00:45:26.540Z,21.00
2022-09-14T00:47:57.582Z,21.00
2022-09-14T00:50:29.087Z,21.00
2022-09-14T00:52:59.786Z,21.00
2022-09-14T00:55:30.615Z,21.10
2022-09-14T00:58:01.200Z,21.00
2022-09-14T01:00:32.853Z,21.10
2022-09-14T01:03:03.615Z,21.10
2022-09-14T01:05:39.642Z,21.10
2022-09-14T01:08:27.708Z,21.10
2022-09-14T01:11:18.687Z,21.00
2022-09-14T01:13:53.857Z,21.10
2022-09-14T01:16:28.105Z,21.00
2022-09-14T01:19:01.647Z,21.00
2022-09-14T01:21:35.145Z,21.00
2022-09-14T01:24:11.603Z,20.90
2022-09-14T01:27:21.111Z,20.90
2022-09-14T01:29:54.950Z,21.00
2022-09-14T01:32:28.716Z,21.00
2022-09-14T01:35:02.668Z,21.00
2022-09-14T01:37:36.347Z,20.90
2022-09-14T01:40:11.222Z,20.90
2022-09-14T01:42:44.905Z,20.80
2022-09-14T01:45:19.079Z,20.80
2022-09-14T01:47:52.353Z,20.80
2022-09-14T01:50:26.475Z,20.80
2022-09-14T01:53:00.142Z,20.80
2022-09-14T01:55:33.896Z,20.80
2022-09-14T01:58:08.180Z,20.70
2022-09-14T02:00:41.050Z,20.60
2022-09-14T02:03:14.991Z,20.60
2022-09-14T02:05:49.008Z,20.70
2022-09-14T02:08:19.844Z,20.70
2022-09-14T02:10:50.540Z,20.70
2022-09-14T02:13:21.047Z,20.90
2022-09-14T02:15:51.700Z,20.90
2022-09-14T02:18:23.111Z,20.80
2022-09-14T02:20:56.903Z,20.90
2022-09-14T02:23:28.045Z,20.80
2022-09-14T02:25:59.358Z,20.80
2022-09-14T02:28:30.012Z,20.80
2022-09-14T02:31:06.617Z,20.70
2022-09-14T02:33:40.588Z,20.60
2022-09-14T02:36:14.063Z,20.60
2022-09-14T02:38:48.027Z,20.70
2022-09-14T02:41:22.829Z,20.70
2022-09-14T02:43:56.845Z,20.60
2022-09-14T02:46:30.434Z,20.50
2022-09-14T02:49:04.655Z,20.50
2022-09-14T02:51:39.068Z,20.70
2022-09-14T02:54:12.828Z,20.90
2022-09-14T02:56:44.976Z,20.80
2022-09-14T02:59:15.807Z,20.70
2022-09-14T03:01:46.849Z,20.60
2022-09-14T03:04:17.796Z,20.50
2022-09-14T03:06:48.314Z,20.50
2022-09-14T03:09:19.214Z,20.50
2022-09-14T03:11:49.919Z,20.50
2022-09-14T03:14:20.446Z,20.50
2022-09-14T03:16:51.208Z,20.50
2022-09-14T03:19:21.894Z,20.40
2022-09-14T03:21:52.600Z,20.40
2022-09-14T03:24:23.487Z,20.30
2022-09-14T03:26:54.021Z,20.30
2022-09-14T03:29:24.998Z,20.30
2022-09-14T03:31:55.743Z,20.30
2022-09-14T03:34:26.283Z,20.30
2022-09-14T03:36:56.814Z,20.30
2022-09-14T03:39:27.704Z,20.30
2022-09-14T03:41:59.286Z,20.30
2022-09-14T03:44:29.768Z,20.20
2022-09-14T03:47:00.518Z,20.10
2022-09-14T03:49:31.176Z,20.10
2022-09-14T03:52:01.816Z,20.10
2022-09-14T03:54:32.848Z,20.00
2022-09-14T03:57:03.370Z,20.00
2022-09-14T03:59:34.006Z,19.90
2022-09-14T04:02:05.314Z,19.90
2022-09-14T04:04:35.941Z,19.90
2022-09-14T04:07:06.496Z,19.80
2022-09-14T04:09:37.868Z,19.80
2022-09-14T04:12:10.200Z,19.80
2022-09-14T04:14:40.772Z,20.00
2022-09-14T04:17:11.344Z,20.00
2022-09-14T04:19:42.280Z,20.00
2022-09-14T04:22:13.092Z,19.90
2022-09-14T04:24:43.614Z,19.90
2022-09-14T04:27:14.986Z,19.80
2022-09-14T04:29:45.540Z,19.80
2022-09-14T04:32:16.112Z,19.80
2022-09-14T04:34:46.703Z,19.80
2022-09-14T04:37:17.224Z,19.90
2022-09-14T04:39:47.956Z,20.00
2022-09-14T04:42:18.552Z,20.00
2022-09-14T04:44:50.796Z,20.00
2022-09-14T04:47:21.392Z,20.00
2022-09-14T04:49:52.079Z,19.90
2022-09-14T04:52:23.727Z,19.80
2022-09-14T04:54:54.318Z,19.80
2022-09-14T04:57:24.911Z,19.70
2022-09-14T04:59:55.458Z,19.60
2022-09-14T05:02:27.086Z,19.60
2022-09-14T05:04:59.113Z,19.60
2022-09-14T05:07:30.223Z,19.60
2022-09-14T05:10:00.820Z,19.60
2022-09-14T05:12:32.516Z,19.50
2022-09-14T05:15:03.061Z,19.50
2022-09-14T05:17:36.263Z,19.50
2022-09-14T05:20:09.781Z,19.50
2022-09-14T05:22:40.375Z,19.50
2022-09-14T05:25:12.259Z,19.40
2022-09-14T05:27:42.801Z,19.30
2022-09-14T05:30:14.864Z,19.40
2022-09-14T05:32:45.374Z,19.40
2022-09-14T05:35:16.181Z,19.50
2022-09-14T05:37:46.758Z,19.40
2022-09-14T05:40:17.744Z,19.40
2022-09-14T05:42:48.501Z,19.40
2022-09-14T05:45:19.275Z,19.40
2022-09-14T05:47:49.870Z,19.40
2022-09-14T05:50:20.582Z,19.40
2022-09-14T05:52:51.740Z,19.40
2022-09-14T05:55:22.360Z,19.50
2022-09-14T05:57:53.689Z,19.40
2022-09-14T06:00:24.641Z,19.40
2022-09-14T06:02:56.422Z,19.40
2022-09-14T06:05:28.347Z,19.30
2022-09-14T06:07:59.024Z,19.40
2022-09-14T06:10:29.750Z,19.40
2022-09-14T06:13:02.064Z,19.40
2022-09-14T06:15:34.384Z,19.40
2022-09-14T06:18:07.093Z,19.40
2022-09-14T06:20:37.816Z,19.40
2022-09-14T06:23:10.964Z,19.40
2022-09-14T06:25:42.131Z,19.40
2022-09-14T06:28:13.817Z,19.40
2022-09-14T06:30:47.079Z,19.40
2022-09-14T06:33:18.023Z,19.40
2022-09-14T06:35:58.023Z,19.40
2022-09-14T06:38:29.569Z,19.40
2022-09-14T06:41:02.859Z,19.40
2022-09-14T06:43:35.311Z,19.40
2022-09-14T06:46:08.166Z,19.40
2022-09-14T06:48:40.695Z,19.40
2022-09-14T06:51:17.832Z,19.40
2022-09-14T06:53:49.468Z,19.40
2022-09-14T06:56:21.311Z,19.50
2022-09-14T06:58:53.343Z,19.50
2022-09-14T07:01:26.215Z,19.50
2022-09-14T07:03:58.456Z,19.40
2022-09-14T07:06:31.297Z,19.30
2022-09-14T07:09:03.299Z,19.30
2022-09-14T07:11:34.349Z,19.50
2022-09-14T07:14:05.200Z,19.50
2022-09-14T07:16:37.169Z,19.60
2022-09-14T07:19:10.452Z,19.60
2022-09-14T07:21:43.061Z,19.60
2022-09-14T07:24:15.241Z,19.50
2022-09-14T07:26:45.977Z,19.60
2022-09-14T07:29:19.586Z,19.60
2022-09-14T07:31:52.544Z,19.60
2022-09-14T07:34:24.169Z,19.70
2022-09-14T07:36:54.733Z,19.80
2022-09-14T07:39:25.327Z,19.70
2022-09-14T07:41:55.931Z,19.80
2022-09-14T07:44:26.613Z,19.80
2022-09-14T07:46:57.475Z,19.80
2022-09-14T07:49:28.353Z,19.70
2022-09-14T07:51:59.853Z,19.60
2022-09-14T07:54:31.419Z,19.70
2022-09-14T07:57:02.066Z,19.80
2022-09-14T07:59:37.226Z,19.70
2022-09-14T08:02:06.354Z,19.70
2022-09-14T08:04:39.516Z,19.60
2022-09-14T08:07:10.507Z,19.70
2022-09-14T08:09:41.661Z,19.70
2022-09-14T08:12:12.332Z,19.70
2022-09-14T08:14:44.556Z,19.70
2022-09-14T08:17:15.235Z,19.80
2022-09-14T08:19:46.097Z,19.80
2022-09-14T08:22:16.660Z,19.80
2022-09-14T08:24:47.764Z,19.80
2022-09-14T08:27:19.899Z,19.80
2022-09-14T08:29:50.995Z,19.90
2022-09-14T08:32:22.767Z,19.80
2022-09-14T08:34:54.525Z,19.80
2022-09-14T08:37:26.135Z,20.00
2022-09-14T08:39:58.030Z,20.10
2022-09-14T08:42:30.870Z,20.20
2022-09-14T08:45:09.526Z,20.20
2022-09-14T08:47:40.147Z,20.40
2022-09-14T08:50:14.358Z,20.70
2022-09-14T08:52:48.281Z,20.80
2022-09-14T08:55:26.751Z,21.10
2022-09-14T08:58:01.179Z,21.30
2022-09-14T09:00:35.649Z,21.40
2022-09-14T09:03:35.397Z,21.60
2022-09-14T09:06:15.121Z,21.90
2022-09-14T09:08:46.658Z,22.10
2022-09-14T09:11:20.180Z,22.20
2022-09-14T09:13:53.551Z,22.10
2022-09-14T09:16:26.303Z,22.30
2022-09-14T09:19:00.841Z,22.40
2022-09-14T09:21:35.075Z,22.50
2022-09-14T09:24:10.737Z,22.80
2022-09-14T09:26:42.173Z,22.80
2022-09-14T09:31:52.461Z,22.80
2022-09-14T09:34:27.281Z,23.00
2022-09-14T09:36:59.821Z,23.30
2022-09-14T09:39:32.797Z,23.50
2022-09-14T09:42:06.605Z,23.60
2022-09-14T09:45:01.765Z,23.70
2022-09-14T09:47:33.936Z,23.90
2022-09-14T09:50:07.691Z,23.80
2022-09-14T09:52:38.547Z,24.00
2022-09-14T09:55:20.258Z,24.10
2022-09-14T09:57:51.133Z,24.30
2022-09-14T10:00:25.686Z,24.50
2022-09-14T10:02:57.340Z,24.40
2022-09-14T10:05:31.689Z,24.30
2022-09-14T10:08:06.927Z,24.40
2022-09-14T10:10:46.033Z,24.50
2022-09-14T10:13:24.070Z,24.40
2022-09-14T10:15:55.138Z,24.30
2022-09-14T10:18:27.688Z,24.40
2022-09-14T10:21:10.490Z,24.50
2022-09-14T10:23:42.018Z,24.70
2022-09-14T10:26:27.422Z,24.70
2022-09-14T10:31:39.825Z,24.30
2022-09-14T10:34:17.258Z,24.60
2022-09-14T10:36:50.438Z,24.50
2022-09-14T10:39:26.229Z,24.30
2022-09-14T10:42:00.932Z,24.30
2022-09-14T10:44:40.970Z,24.50
2022-09-14T10:47:21.797Z,24.50
2022-09-14T10:50:00.730Z,24.40
2022-09-14T10:52:36.125Z,24.30
2022-09-14T10:55:30.117Z,24.30
2022-09-14T10:58:07.389Z,24.50
2022-09-14T11:00:44.064Z,24.60
2022-09-14T11:03:28.692Z,24.60
2022-09-14T11:06:05.376Z,24.70
2022-09-14T11:08:39.146Z,24.80
2022-09-14T11:14:30.800Z,24.80
2022-09-14T11:17:09.198Z,24.80
2022-09-14T11:19:45.325Z,24.60
2022-09-14T11:22:19.153Z,24.60
2022-09-14T11:24:53.038Z,24.70
2022-09-14T11:30:11.627Z,25.40
2022-09-14T11:32:46.114Z,25.50
2022-09-14T11:35:20.613Z,25.10
2022-09-14T11:37:54.070Z,25.00
2022-09-14T11:40:29.421Z,25.00
2022-09-14T11:43:03.622Z,25.00
2022-09-14T11:45:37.691Z,25.20
2022-09-14T11:48:41.459Z,25.30
2022-09-14T11:50:49.901Z,25.50
2022-09-14T11:53:22.719Z,25.80
2022-09-14T11:55:54.230Z,26.00
2022-09-14T11:58:26.720Z,25.80
2022-09-14T12:01:26.694Z,25.80
2022-09-14T12:06:56.924Z,26.50
2022-09-14T12:09:46.790Z,26.90
2022-09-14T12:12:39.795Z,27.30
2022-09-14T12:15:33.557Z,27.20
2022-09-14T12:18:24.685Z,27.20
2022-09-14T12:21:08.234Z,27.10
2022-09-14T12:23:48.279Z,27.30
2022-09-14T12:26:33.933Z,27.60
2022-09-14T12:29:26.715Z,27.60
2022-09-14T12:32:13.485Z,27.80
2022-09-14T12:34:44.435Z,27.90
2022-09-14T12:37:33.705Z,27.30
2022-09-14T12:40:22.355Z,27.00
2022-09-14T12:42:53.303Z,27.00
2022-09-14T12:45:52.346Z,27.50
2022-09-14T12:51:41.056Z,27.30
2022-09-14T12:54:21.005Z,27.20
2022-09-14T12:57:00.318Z,27.00
2022-09-14T12:59:35.081Z,27.10
2022-09-14T13:02:13.229Z,27.00
2022-09-14T13:04:46.009Z,27.20
2022-09-14T13:07:19.551Z,27.30
2022-09-14T13:09:52.961Z,27.70
2022-09-14T13:12:27.255Z,28.00
2022-09-14T13:15:00.871Z,27.80
2022-09-14T13:17:31.553Z,27.80
2022-09-14T13:20:05.290Z,27.90
2022-09-14T13:22:36.471Z,27.60
2022-09-14T13:25:09.232Z,27.20
2022-09-14T13:27:41.264Z,27.00
2022-09-14T13:30:22.397Z,26.90
2022-09-14T13:32:55.755Z,26.90
2022-09-14T13:35:32.368Z,26.80
2022-09-14T13:38:08.969Z,26.80
2022-09-14T13:40:40.088Z,26.50
2022-09-14T13:43:11.401Z,26.40
2022-09-14T13:45:42.477Z,26.30
2022-09-14T13:48:16.637Z,26.10
2022-09-14T13:50:51.036Z,26.00
2022-09-14T13:53:41.946Z,26.20
2022-09-14T13:56:26.608Z,26.10
2022-09-14T13:59:17.197Z,26.40
2022-09-14T14:01:58.473Z,26.60
2022-09-14T14:04:35.504Z,26.90
2022-09-14T14:07:17.198Z,27.00
2022-09-14T14:09:51.058Z,26.90
2022-09-14T14:12:27.582Z,26.70
2022-09-14T14:15:01.383Z,27.10
2022-09-14T14:17:39.533Z,27.20
2022-09-14T14:20:34.447Z,27.10
2022-09-14T14:23:24.170Z,27.50
2022-09-14T14:25:56.757Z,28.00
2022-09-14T14:28:29.115Z,28.20
2022-09-14T14:31:07.819Z,28.60
2022-09-14T14:33:35.520Z,28.30
2022-09-14T14:36:08.789Z,28.20
2022-09-14T14:38:40.805Z,28.60
2022-09-14T14:41:15.529Z,28.30
2022-09-14T14:43:47.271Z,28.40
2022-09-14T14:46:18.448Z,28.50
2022-09-14T14:48:49.106Z,28.80
2022-09-14T14:51:19.902Z,28.80
2022-09-14T14:53:50.506Z,28.50
2022-09-14T14:56:21.168Z,28.40
2022-09-14T14:58:51.805Z,28.10
2022-09-14T15:01:23.025Z,27.90
2022-09-14T15:06:30.714Z,27.00
2022-09-14T15:09:02.012Z,26.90
2022-09-14T15:11:35.456Z,26.80
2022-09-14T15:14:07.384Z,27.00
2022-09-14T15:16:38.163Z,27.20
2022-09-14T15:19:10.522Z,27.40
2022-09-14T15:21:43.223Z,27.50
2022-09-14T15:24:14.785Z,27.50
2022-09-14T15:26:45.397Z,27.00
2022-09-14T15:29:17.704Z,26.80
2022-09-14T15:31:48.380Z,26.70
2022-09-14T15:34:19.127Z,26.40
2022-09-14T15:36:52.582Z,26.30
2022-09-14T15:39:25.291Z,26.20
2022-09-14T15:41:57.363Z,25.90
2022-09-14T15:44:28.509Z,25.90
2022-09-14T15:47:00.079Z,25.80
2022-09-14T15:49:31.085Z,25.70
2022-09-14T15:52:02.153Z,25.40
2022-09-14T15:54:38.581Z,25.10
2022-09-14T15:57:11.762Z,25.10
2022-09-14T15:59:42.340Z,24.90
2022-09-14T16:02:13.787Z,24.90
2022-09-14T16:04:44.395Z,24.70
2022-09-14T16:07:14.984Z,24.60
2022-09-14T16:09:45.946Z,24.60
2022-09-14T16:12:16.547Z,24.60
2022-09-14T16:14:47.059Z,24.40
2022-09-14T16:17:17.591Z,24.40
2022-09-14T16:19:49.678Z,24.50
2022-09-14T16:22:21.806Z,24.60
2022-09-14T16:24:52.825Z,24.40
2022-09-14T16:27:25.180Z,24.50
2022-09-14T16:29:56.409Z,24.50
2022-09-14T16:32:27.623Z,24.50
2022-09-14T16:34:58.170Z,24.40
2022-09-14T16:37:29.046Z,24.30
2022-09-14T16:39:59.901Z,24.20
2022-09-14T16:42:30.492Z,24.10
2022-09-14T16:45:01.017Z,24.00
2022-09-14T16:47:32.464Z,23.90
2022-09-14T16:50:03.299Z,24.00
2022-09-14T16:52:34.130Z,23.80
2022-09-14T16:55:04.962Z,23.80
2022-09-14T16:57:35.497Z,23.60
2022-09-14T17:00:08.150Z,23.50
2022-09-14T17:02:38.766Z,23.40
2022-09-14T17:05:11.097Z,23.40
2022-09-14T17:07:41.711Z,23.30
2022-09-14T17:10:13.024Z,23.20
2022-09-14T17:12:44.358Z,23.10
2022-09-14T17:15:15.060Z,23.00
2022-09-14T17:17:45.626Z,23.00
2022-09-14T17:20:16.214Z,22.90
2022-09-14T17:22:46.731Z,22.80
2022-09-14T17:25:17.502Z,22.80
2022-09-14T17:27:48.096Z,22.80
2022-09-14T17:30:18.883Z,22.70
2022-09-14T17:32:49.563Z,22.60
2022-09-14T17:35:20.109Z,22.50
2022-09-14T17:37:50.640Z,22.50
2022-09-14T17:40:21.321Z,22.40
2022-09-14T17:42:51.906Z,22.30
2022-09-14T17:45:22.827Z,22.20
2022-09-14T17:47:53.420Z,22.10
2022-09-14T17:50:23.947Z,22.10
2022-09-14T17:52:54.473Z,22.10
2022-09-14T17:55:25.667Z,22.00
2022-09-14T17:57:56.204Z,22.10
2022-09-14T18:00:26.968Z,22.10
2022-09-14T18:02:58.039Z,22.10
2022-09-14T18:05:28.848Z,22.10
2022-09-14T18:07:59.921Z,22.10
2022-09-14T18:10:30.601Z,22.20
2022-09-14T18:13:01.158Z,22.10
2022-09-14T18:15:32.144Z,22.10
2022-09-14T18:18:02.641Z,22.00
2022-09-14T18:20:33.208Z,21.90
2022-09-14T18:23:03.727Z,21.80
2022-09-14T18:25:34.381Z,21.80
2022-09-14T18:28:05.212Z,21.90
2022-09-14T18:30:39.362Z,21.90
2022-09-14T18:35:39.750Z,21.70
2022-09-14T18:38:14.352Z,21.70
2022-09-14T18:40:45.315Z,21.90
2022-09-14T18:43:17.022Z,22.00
2022-09-14T18:45:48.437Z,21.90
2022-09-14T18:48:18.970Z,21.70
2022-09-14T18:50:49.689Z,21.60
2022-09-14T18:53:20.219Z,21.70
2022-09-14T18:55:50.725Z,21.70
2022-09-14T18:58:24.137Z,21.60
2022-09-14T19:00:54.815Z,21.50
2022-09-14T19:03:25.528Z,21.40
2022-09-14T19:05:56.149Z,21.40
2022-09-14T19:08:26.925Z,21.40
2022-09-14T19:10:57.679Z,21.30
2022-09-14T19:13:28.264Z,21.20
2022-09-14T19:15:58.893Z,21.30
2022-09-14T19:18:29.556Z,21.20
2022-09-14T19:23:44.250Z,21.10
2022-09-14T19:26:17.631Z,21.20
2022-09-14T19:28:48.445Z,21.10
2022-09-14T19:31:22.669Z,21.00
2022-09-14T19:33:53.235Z,21.00
2022-09-14T19:36:27.674Z,21.10
2022-09-14T19:39:01.944Z,21.20
2022-09-14T19:41:33.900Z,21.10
2022-09-14T19:44:06.939Z,21.10
2022-09-14T19:46:39.689Z,21.20
2022-09-14T19:49:14.761Z,21.10
2022-09-14T19:51:47.384Z,21.20
2022-09-14T19:54:18.752Z,21.10
2022-09-14T19:56:49.652Z,21.00
2022-09-14T19:59:20.185Z,21.00
2022-09-14T20:01:52.660Z,21.00
2022-09-14T20:04:24.011Z,20.80
2022-09-14T20:06:55.543Z,20.60
2022-09-14T20:09:26.673Z,20.50
2022-09-14T20:11:57.538Z,20.40
2022-09-14T20:14:28.394Z,20.50
2022-09-14T20:17:00.470Z,20.70
2022-09-14T20:19:33.210Z,20.60
2022-09-14T20:24:41.234Z,20.50
2022-09-14T20:27:11.772Z,20.40
2022-09-14T20:29:42.381Z,20.30
2022-09-14T20:32:14.016Z,20.30
2022-09-14T20:34:45.118Z,20.20
2022-09-14T20:37:15.669Z,20.30
2022-09-14T20:39:46.358Z,20.20
2022-09-14T20:42:16.960Z,19.90
2022-09-14T20:44:47.521Z,19.60
2022-09-14T20:47:18.073Z,19.20
2022-09-14T20:49:49.212Z,18.90
2022-09-14T20:52:20.712Z,18.90
2022-09-14T20:54:51.219Z,18.90
2022-09-14T20:57:21.996Z,18.80
2022-09-14T20:59:52.522Z,18.60
2022-09-14T21:02:23.138Z,18.70
2022-09-14T21:04:53.869Z,18.50
2022-09-14T21:07:24.405Z,18.40
2022-09-14T21:09:54.924Z,18.50
2022-09-14T21:12:25.622Z,18.50
2022-09-14T21:14:56.141Z,18.40
2022-09-14T21:17:26.719Z,18.30
2022-09-14T21:19:57.565Z,18.30
2022-09-14T21:22:28.096Z,18.20
2022-09-14T21:24:58.889Z,18.20
2022-09-14T21:27:29.413Z,18.20
2022-09-14T21:30:00.078Z,18.10
2022-09-14T21:32:30.643Z,18.10
2022-09-14T21:35:01.195Z,17.90
2022-09-14T21:37:31.761Z,17.90
2022-09-14T21:40:02.614Z,17.90
2022-09-14T21:42:33.235Z,17.90
2022-09-14T21:45:04.134Z,17.80
2022-09-14T21:47:34.658Z,17.80
2022-09-14T21:50:06.386Z,17.70
2022-09-14T21:52:38.495Z,17.70
2022-09-14T21:55:10.699Z,17.70
2022-09-14T21:57:41.760Z,17.60
2022-09-14T22:00:14.513Z,17.70
2022-09-14T22:02:45.151Z,17.70
2022-09-14T22:05:15.993Z,17.70
2022-09-14T22:07:46.518Z,17.50
2022-09-14T22:10:17.916Z,17.40
2022-09-14T22:12:48.809Z,17.40
2022-09-14T22:15:19.492Z,17.50
2022-09-14T22:17:50.323Z,17.50
2022-09-14T22:20:21.041Z,17.50
2022-09-14T22:22:51.692Z,17.40
2022-09-14T22:25:24.016Z,17.50
2022-09-14T22:27:54.560Z,17.40
2022-09-14T22:30:26.377Z,17.30
2022-09-14T22:32:56.987Z,17.40
2022-09-14T22:35:27.580Z,17.20
2022-09-14T22:37:58.241Z,17.20
2022-09-14T22:40:28.943Z,17.30
2022-09-14T22:42:59.498Z,17.40
2022-09-14T22:45:29.992Z,17.30
2022-09-14T22:48:00.669Z,17.20
2022-09-14T22:50:31.249Z,17.30
2022-09-14T22:53:02.261Z,17.30
2022-09-14T22:55:32.915Z,17.20
2022-09-14T22:58:03.471Z,17.20
2022-09-14T23:00:35.723Z,17.20
2022-09-14T23:03:06.865Z,17.30
2022-09-14T23:05:38.462Z,17.20
2022-09-14T23:08:10.336Z,17.20
2022-09-14T23:10:41.016Z,17.20
2022-09-14T23:13:11.543Z,17.30
2022-09-14T23:15:43.001Z,17.30
2022-09-14T23:18:14.303Z,17.20
2022-09-14T23:20:46.161Z,17.20
2022-09-14T23:23:16.831Z,17.20
2022-09-14T23:25:47.524Z,17.20
2022-09-14T23:28:18.101Z,17.10
2022-09-14T23:30:55.273Z,17.10
2022-09-14T23:33:25.984Z,17.20
2022-09-14T23:35:56.804Z,17.10
2022-09-14T23:38:28.100Z,17.10
2022-09-14T23:40:59.485Z,17.10
2022-09-14T23:43:30.019Z,17.10
2022-09-14T23:46:00.610Z,17.10
2022-09-14T23:48:31.146Z,17.00
2022-09-14T23:51:03.915Z,17.00
2022-09-14T23:53:35.387Z,17.10
2022-09-14T23:56:07.473Z,17.00
2022-09-14T23:58:38.408Z,17.00
